Time;durP1;ratioP1;P1;durP2;ratioP2;P2;SDS_P1;SDS_P2;PMS_P1;PMS_P2;Temp;Humidity;BMP_temperature;BMP_pressure;BME280_temperature;BME280_humidity;BME280_pressure;Samples;Min_cycle;Max_cycle;Signal;HPM_P1;HPM_P2
2022/11/01 00:01:37;;;;;;;;;;;;;;;18.08;48.81;101522.81;4958417;28;865;-54
2022/11/01 00:04:03;;;;;;;;;;;;;;;17.68;48.46;101526.06;4959256;28;1981;-55
2022/11/01 00:06:28;;;;;;;;;;;;;;;17.44;47.40;101527.25;4959715;28;1307;-55
2022/11/01 00:08:53;;;;;;;;;;;;;;;17.34;46.86;101529.09;4959176;28;1176;-55
2022/11/01 00:11:19;;;;;;;;;;;;;;;18.33;47.87;101525.97;4954093;28;1122;-55
2022/11/01 00:13:45;;;;;;;;;;;;;;;17.66;47.91;101528.28;4951139;28;1121;-54
2022/11/01 00:16:10;;;;;;;;;;;;;;;17.50;46.94;101525.41;4959528;28;1177;-53
2022/11/01 00:18:36;;;;;;;;;;;;;;;17.45;46.15;101525.34;4959174;28;1173;-55
2022/11/01 00:21:01;;;;;;;;;;;;;;;17.68;46.71;101531.59;4959231;28;1164;-56
2022/11/01 00:23:27;;;;;;;;;;;;;;;17.83;47.92;101519.88;4958709;28;1911;-55
2022/11/01 00:25:52;;;;;;;;;;;;;;;17.45;47.33;101526.16;4956633;28;1109;-54
2022/11/01 00:28:18;;;;;;;;;;;;;;;17.67;47.58;101530.75;4958668;28;1911;-53
2022/11/01 00:30:43;;;;;;;;;;;;;;;17.74;47.92;101525.88;4959074;28;1165;-52
2022/11/01 00:33:09;;;;;;;;;;;;;;;17.41;47.33;101530.53;4955374;28;1125;-53
2022/11/01 00:35:37;;;;;;;;;;;;;;;18.74;47.62;101529.75;4949036;28;1098;-53
2022/11/01 00:38:02;;;;;;;;;;;;;;;17.79;48.42;101522.31;4958318;28;1390;-53
2022/11/01 00:40:28;;;;;;;;;;;;;;;17.68;47.41;101515.06;4976095;28;1223;-52
2022/11/01 00:42:53;;;;;;;;;;;;;;;17.33;46.91;101525.50;4958508;28;1906;-52
2022/11/01 00:45:19;;;;;;;;;;;;;;;18.32;47.97;101514.16;4958766;28;1133;-52
2022/11/01 00:47:47;;;;;;;;;;;;;;;17.69;47.93;101517.56;4951098;28;1161;-53
2022/11/01 00:50:12;;;;;;;;;;;;;;;17.39;47.11;101516.22;4952775;28;1183;-51
2022/11/01 00:52:38;;;;;;;;;;;;;;;17.51;47.29;101517.97;4958388;28;1200;-53
2022/11/01 00:55:03;;;;;;;;;;;;;;;17.34;46.99;101513.41;4958177;28;1145;-57
2022/11/01 00:57:29;;;;;;;;;;;;;;;17.98;48.58;101514.50;4958259;28;2237;-56
2022/11/01 00:59:54;;;;;;;;;;;;;;;17.61;47.62;101518.03;4958210;28;1451;-57
2022/11/01 01:02:20;;;;;;;;;;;;;;;17.98;48.15;101520.00;4957947;28;1977;-56
2022/11/01 01:04:46;;;;;;;;;;;;;;;17.84;48.52;101518.75;4958778;28;1169;-56
2022/11/01 01:07:12;;;;;;;;;;;;;;;17.44;47.79;101516.25;4958065;28;1097;-56
2022/11/01 01:09:38;;;;;;;;;;;;;;;17.26;47.03;101516.63;4945378;29;1051;-56
2022/11/01 01:12:04;;;;;;;;;;;;;;;17.23;46.26;101509.72;4958149;28;1110;-55
2022/11/01 01:14:30;;;;;;;;;;;;;;;17.90;47.80;101513.03;4980410;28;1121;-56
2022/11/01 01:16:55;;;;;;;;;;;;;;;17.42;47.65;101512.94;4947504;29;1173;-54
2022/11/01 01:19:21;;;;;;;;;;;;;;;17.22;46.77;101510.84;4957840;28;1227;-56
2022/11/01 01:21:46;;;;;;;;;;;;;;;17.97;47.98;101518.34;4958053;28;1216;-55
2022/11/01 01:24:12;;;;;;;;;;;;;;;17.55;47.46;101516.34;4957852;28;1902;-55
2022/11/01 01:26:37;;;;;;;;;;;;;;;18.28;48.04;101515.78;4952123;28;1137;-57
2022/11/01 01:29:02;;;;;;;;;;;;;;;17.84;48.84;101513.25;4957177;28;2529;-55
2022/11/01 01:31:28;;;;;;;;;;;;;;;17.45;48.38;101515.16;4957963;28;1129;-55
2022/11/01 01:33:53;;;;;;;;;;;;;;;17.45;47.08;101511.59;4957939;28;1114;-55
2022/11/01 01:36:19;;;;;;;;;;;;;;;18.15;47.91;101519.03;4958273;28;1122;-55
2022/11/01 01:38:44;;;;;;;;;;;;;;;17.75;48.34;101515.69;4957677;28;1228;-56
2022/11/01 01:43:54;;;;;;;;;;;;;;;18.31;47.90;101518.00;4955977;29;2443;-58
2022/11/01 01:46:19;;;;;;;;;;;;;;;17.61;48.19;101515.28;4958168;28;1137;-57
2022/11/01 01:48:45;;;;;;;;;;;;;;;17.39;47.16;101518.97;4944289;28;1169;-54
2022/11/01 01:51:12;;;;;;;;;;;;;;;17.29;46.61;101521.59;4949340;29;890;-55
2022/11/01 01:53:39;;;;;;;;;;;;;;;18.12;47.87;101528.63;4951050;28;1144;-52
2022/11/01 01:56:06;;;;;;;;;;;;;;;17.56;47.93;101521.59;4957738;28;1166;-54
2022/11/01 01:58:42;;;;;;;;;;;;;;;18.27;47.94;101514.13;4977398;28;2665;-54
2022/11/01 02:01:07;;;;;;;;;;;;;;;17.94;48.43;101513.38;4983100;28;1133;-54
2022/11/01 02:03:33;;;;;;;;;;;;;;;17.52;48.11;101517.69;4956814;29;1903;-56
2022/11/01 02:06:00;;;;;;;;;;;;;;;17.41;46.89;101516.78;4953250;28;1390;-57
2022/11/01 02:08:28;;;;;;;;;;;;;;;17.42;46.79;101529.44;4957607;28;1121;-55
2022/11/01 02:11:00;;;;;;;;;;;;;;;17.93;48.31;101519.97;4956549;29;1149;-53
2022/11/01 02:13:26;;;;;;;;;;;;;;;17.57;47.63;101522.41;4981672;28;1176;-53
2022/11/01 02:15:51;;;;;;;;;;;;;;;17.42;46.84;101523.13;4957425;28;1129;-55
2022/11/01 02:18:16;;;;;;;;;;;;;;;18.41;47.67;101519.97;4944052;29;1035;-57
2022/11/01 02:20:45;;;;;;;;;;;;;;;17.61;48.14;101527.13;4955944;29;1098;-55
2022/11/01 02:23:22;;;;;;;;;;;;;;;17.86;48.51;101527.59;4943496;28;1914;-50
2022/11/01 02:25:57;;;;;;;;;;;;;;;17.92;49.04;101526.56;4989900;28;893;-51
2022/11/01 02:28:28;;;;;;;;;;;;;;;17.57;48.11;101533.41;4959910;28;2546;-49
2022/11/01 02:31:06;;;;;;;;;;;;;;;17.50;46.94;101527.31;4961184;28;751;-52
2022/11/01 02:33:52;;;;;;;;;;;;;;;18.29;48.05;101531.22;4960803;28;835;-51
2022/11/01 02:36:27;;;;;;;;;;;;;;;17.72;48.17;101532.72;4959931;29;1354;-53
2022/11/01 02:39:13;;;;;;;;;;;;;;;17.41;47.58;101537.94;4960757;28;945;-50
2022/11/01 02:41:44;;;;;;;;;;;;;;;17.38;47.09;101527.47;4960696;29;1134;-52
2022/11/01 02:44:16;;;;;;;;;;;;;;;17.83;47.98;101536.38;4959853;29;1992;-50
2022/11/01 02:47:00;;;;;;;;;;;;;;;17.39;47.86;101529.97;4959694;29;1242;-52
2022/11/01 02:49:33;;;;;;;;;;;;;;;17.39;47.36;101529.97;4959490;29;812;-52
2022/11/01 02:51:59;;;;;;;;;;;;;;;17.89;48.17;101530.66;4959267;29;912;-51
2022/11/01 02:54:30;;;;;;;;;;;;;;;17.48;47.71;101530.31;4959274;29;822;-51
2022/11/01 02:56:57;;;;;;;;;;;;;;;17.36;46.85;101530.50;4960677;28;1956;-50
2022/11/01 02:59:23;;;;;;;;;;;;;;;18.14;47.39;101537.44;4960537;28;917;-53
2022/11/01 03:01:54;;;;;;;;;;;;;;;17.62;47.85;101541.72;4960057;28;1067;-53
2022/11/01 03:04:20;;;;;;;;;;;;;;;17.36;47.00;101535.16;4960333;28;1907;-52
2022/11/01 03:06:47;;;;;;;;;;;;;;;17.44;46.72;101532.75;4960503;28;1210;-53
2022/11/01 03:09:13;;;;;;;;;;;;;;;18.21;47.69;101528.97;4959197;29;779;-50
2022/11/01 03:11:58;;;;;;;;;;;;;;;17.50;47.93;101538.28;4960558;28;1549;-50
2022/11/01 03:14:33;;;;;;;;;;;;;;;17.30;47.20;101534.25;4955898;29;1125;-49
2022/11/01 03:16:59;;;;;;;;;;;;;;;17.90;48.06;101531.47;4960468;28;838;-51
2022/11/01 03:19:31;;;;;;;;;;;;;;;17.52;47.59;101544.38;4958158;29;801;-52
2022/11/01 03:22:02;;;;;;;;;;;;;;;18.25;47.85;101541.91;4960058;28;843;-53
2022/11/01 03:24:43;;;;;;;;;;;;;;;17.64;48.10;101539.50;4958636;29;1982;-50
2022/11/01 03:27:09;;;;;;;;;;;;;;;17.33;47.43;101544.72;4960195;28;2454;-50
2022/11/01 03:29:35;;;;;;;;;;;;;;;17.41;46.24;101549.75;4960075;28;825;-50
2022/11/01 03:32:01;;;;;;;;;;;;;;;17.53;47.22;101544.13;4958581;29;819;-52
2022/11/01 03:34:27;;;;;;;;;;;;;;;17.85;48.12;101536.94;4959246;28;917;-53
2022/11/01 03:36:54;;;;;;;;;;;;;;;17.52;48.07;101544.38;4958593;28;862;-52
2022/11/01 03:39:21;;;;;;;;;;;;;;;19.13;47.65;101543.13;4959559;28;888;-51
2022/11/01 03:41:47;;;;;;;;;;;;;;;18.05;48.86;101539.88;4958708;29;878;-53
2022/11/01 03:44:12;;;;;;;;;;;;;;;17.69;48.17;101544.25;4958915;29;1996;-48
2022/11/01 03:46:38;;;;;;;;;;;;;;;17.57;47.05;101541.66;4959717;28;735;-51
2022/11/01 03:49:03;;;;;;;;;;;;;;;17.38;46.67;101536.53;4958635;29;951;-49
2022/11/01 03:51:29;;;;;;;;;;;;;;;18.08;47.84;101536.59;4959069;28;1033;-50
2022/11/01 03:53:54;;;;;;;;;;;;;;;17.56;47.82;101540.84;4959995;28;806;-51
2022/11/01 03:56:20;;;;;;;;;;;;;;;17.47;46.95;101547.91;4958364;29;795;-50
2022/11/01 03:58:45;;;;;;;;;;;;;;;17.55;47.01;101550.16;4958842;28;2698;-47
2022/11/01 04:01:12;;;;;;;;;;;;;;;17.94;48.15;101540.91;4959073;28;1121;-51
2022/11/01 04:03:37;;;;;;;;;;;;;;;17.53;47.85;101540.53;4959400;28;1987;-50
2022/11/01 04:06:03;;;;;;;;;;;;;;;18.30;48.27;101543.88;4958175;29;775;-50
2022/11/01 04:08:28;;;;;;;;;;;;;;;17.72;48.56;101551.97;4959865;28;754;-49
2022/11/01 04:10:54;;;;;;;;;;;;;;;17.48;47.74;101538.56;4959146;28;786;-49
2022/11/01 04:13:19;;;;;;;;;;;;;;;17.36;46.71;101547.00;4958997;28;821;-48
2022/11/01 04:21:13;;;;;;;;;;;;;;;17.40;48.03;101550.88;4958972;28;866;-48
2022/11/01 04:23:39;;;;;;;;;;;;;;;17.32;47.01;101545.00;4958845;28;1973;-51
2022/11/01 04:26:06;;;;;;;;;;;;;;;17.47;46.92;101549.81;4959056;28;823;-52
2022/11/01 04:28:31;;;;;;;;;;;;;;;17.69;47.86;101553.31;4958401;28;2440;-51
2022/11/01 04:30:56;;;;;;;;;;;;;;;17.36;47.17;101555.25;4959085;28;734;-49
2022/11/01 04:33:22;;;;;;;;;;;;;;;18.16;47.16;101553.69;4959238;28;764;-52
2022/11/01 04:35:47;;;;;;;;;;;;;;;17.55;47.63;101558.41;4958988;28;810;-50
2022/11/01 04:38:13;;;;;;;;;;;;;;;17.33;46.90;101558.47;4958596;28;798;-54
2022/11/01 04:40:38;;;;;;;;;;;;;;;17.23;45.87;101553.72;4956245;28;1579;-53
2022/11/01 04:43:04;;;;;;;;;;;;;;;17.91;47.55;101567.00;4958782;28;1973;-50
2022/11/01 04:45:29;;;;;;;;;;;;;;;17.44;47.01;101563.00;4958708;28;1137;-50
2022/11/01 04:48:04;;;;;;;;;;;;;;;17.35;46.79;101567.31;4951201;28;1154;-44
2022/11/01 04:50:29;;;;;;;;;;;;;;;18.20;47.96;101571.34;4958640;28;1089;-53
2022/11/01 04:52:56;;;;;;;;;;;;;;;17.32;48.45;101567.84;4958172;28;952;-52
2022/11/01 04:55:21;;;;;;;;;;;;;;;17.23;47.28;101564.69;4958784;28;1130;-52
2022/11/01 04:57:47;;;;;;;;;;;;;;;18.26;47.80;101575.78;4958435;28;2329;-51
2022/11/01 05:00:12;;;;;;;;;;;;;;;17.54;48.31;101573.25;4948808;28;1205;-53
2022/11/01 05:02:38;;;;;;;;;;;;;;;17.35;47.04;101571.97;4955326;29;2245;-48
2022/11/01 05:05:04;;;;;;;;;;;;;;;17.17;47.08;101575.91;4958333;28;1220;-48
2022/11/01 05:07:29;;;;;;;;;;;;;;;17.91;47.78;101579.94;4958486;28;1165;-48
2022/11/01 05:09:55;;;;;;;;;;;;;;;17.49;47.67;101586.13;4958185;28;1243;-51
2022/11/01 05:12:20;;;;;;;;;;;;;;;18.50;47.71;101587.22;4958234;28;1129;-47
2022/11/01 05:14:46;;;;;;;;;;;;;;;17.88;48.47;101583.16;4958041;29;1126;-51
2022/11/01 05:17:11;;;;;;;;;;;;;;;17.37;48.29;101592.59;4958405;28;1106;-53
2022/11/01 05:19:36;;;;;;;;;;;;;;;17.34;46.98;101595.06;4958220;28;1114;-52
2022/11/01 05:22:02;;;;;;;;;;;;;;;18.03;47.63;101599.84;4958091;28;1126;-49
2022/11/01 05:24:27;;;;;;;;;;;;;;;17.71;48.46;101603.41;4957781;28;1910;-49
2022/11/01 05:26:53;;;;;;;;;;;;;;;17.34;47.74;101604.13;4957558;28;2383;-52
2022/11/01 05:29:18;;;;;;;;;;;;;;;17.32;46.90;101605.47;4958029;28;1141;-54
2022/11/01 05:31:44;;;;;;;;;;;;;;;18.06;47.83;101609.50;4957969;28;1185;-55
2022/11/01 05:34:09;;;;;;;;;;;;;;;17.54;48.10;101605.44;4958056;28;1121;-51
2022/11/01 05:36:35;;;;;;;;;;;;;;;17.37;47.04;101611.03;4956687;28;1212;-52
2022/11/01 05:39:00;;;;;;;;;;;;;;;18.09;47.75;101614.47;4945253;28;1168;-52
2022/11/01 05:41:26;;;;;;;;;;;;;;;17.51;48.00;101616.97;4957673;28;1145;-50
2022/11/01 05:43:51;;;;;;;;;;;;;;;17.29;47.16;101623.31;4952922;28;1914;-49
2022/11/01 05:46:17;;;;;;;;;;;;;;;17.21;46.76;101618.28;4949756;29;1145;-52
2022/11/01 05:48:42;;;;;;;;;;;;;;;17.78;47.84;101617.78;4958073;28;1137;-50
2022/11/01 05:51:08;;;;;;;;;;;;;;;17.24;47.72;101623.28;4957478;28;1189;-48
2022/11/01 05:53:34;;;;;;;;;;;;;;;17.30;46.67;101624.97;4957685;28;1487;-49
2022/11/01 05:55:59;;;;;;;;;;;;;;;17.16;46.31;101630.03;4958165;28;1177;-51
2022/11/01 05:58:25;;;;;;;;;;;;;;;18.33;47.18;101620.44;4957459;28;2529;-52
2022/11/01 06:00:55;;;;;;;;;;;;;;;17.49;47.92;101627.38;4959900;28;1374;-51
2022/11/01 06:03:21;;;;;;;;;;;;;;;17.32;47.18;101631.06;4961375;28;1910;-52
2022/11/01 06:05:47;;;;;;;;;;;;;;;18.22;47.41;101633.28;4961583;28;1235;-51
2022/11/01 06:08:12;;;;;;;;;;;;;;;17.51;48.11;101636.22;4961620;28;1134;-51
2022/11/01 06:10:38;;;;;;;;;;;;;;;17.39;46.84;101639.94;4960826;28;1263;-51
2022/11/01 06:13:03;;;;;;;;;;;;;;;18.05;47.71;101640.88;4948859;28;1094;-49
2022/11/01 06:15:29;;;;;;;;;;;;;;;17.45;48.03;101636.13;4959472;29;1071;-51
2022/11/01 06:17:55;;;;;;;;;;;;;;;17.44;48.12;101648.22;4961551;28;1133;-52
2022/11/01 06:20:21;;;;;;;;;;;;;;;18.03;48.22;101643.03;4961154;28;1117;-50
2022/11/01 06:22:46;;;;;;;;;;;;;;;17.56;47.95;101644.53;4961120;28;1914;-52
2022/11/01 06:25:12;;;;;;;;;;;;;;;17.64;47.91;101644.03;4961301;28;1196;-51
2022/11/01 06:27:37;;;;;;;;;;;;;;;17.72;48.38;101643.56;4961349;28;2407;-49
2022/11/01 06:30:03;;;;;;;;;;;;;;;17.50;47.91;101645.53;4961145;28;1137;-52
2022/11/01 06:32:28;;;;;;;;;;;;;;;17.50;48.11;101646.38;4961127;28;1126;-52
2022/11/01 06:34:53;;;;;;;;;;;;;;;18.12;47.70;101653.31;4961122;28;1197;-52
2022/11/01 06:37:19;;;;;;;;;;;;;;;17.47;50.19;101657.06;4961145;28;1125;-55
2022/11/01 06:39:44;;;;;;;;;;;;;;;17.49;50.04;101654.88;4960857;28;1130;-54
2022/11/01 06:42:10;;;;;;;;;;;;;;;17.38;50.32;101664.94;4961038;28;1113;-51
2022/11/01 06:44:35;;;;;;;;;;;;;;;17.23;50.71;101657.34;4960675;28;1980;-51
2022/11/01 06:47:01;;;;;;;;;;;;;;;17.16;51.00;101656.69;4960263;28;1114;-52
2022/11/01 06:49:26;;;;;;;;;;;;;;;17.07;51.26;101659.06;4960850;28;1208;-51
2022/11/01 06:51:51;;;;;;;;;;;;;;;16.95;51.67;101666.59;4960160;28;1165;-53
2022/11/01 06:54:17;;;;;;;;;;;;;;;17.08;51.51;101671.69;4957552;28;1036;-53
2022/11/01 06:56:45;;;;;;;;;;;;;;;16.94;52.07;101660.25;4960197;28;1146;-52
2022/11/01 06:59:10;;;;;;;;;;;;;;;16.86;52.47;101669.75;4959423;28;2732;-54
2022/11/01 07:01:36;;;;;;;;;;;;;;;16.72;53.24;101669.28;4961260;28;1181;-48
2022/11/01 07:04:01;;;;;;;;;;;;;;;16.66;53.24;101670.31;4960009;28;1907;-44
2022/11/01 07:06:29;;;;;;;;;;;;;;;16.71;53.39;101667.63;4961247;28;1237;-53
2022/11/01 07:08:55;;;;;;;;;;;;;;;16.64;53.44;101666.97;4960226;28;1184;-47
2022/11/01 07:11:21;;;;;;;;;;;;;;;16.69;53.44;101669.78;4958693;28;1145;-50
2022/11/01 07:13:47;;;;;;;;;;;;;;;16.64;53.54;101672.47;4960258;28;1253;-49
2022/11/01 07:16:13;;;;;;;;;;;;;;;16.61;54.13;101678.47;4960264;28;1227;-50
2022/11/01 07:18:38;;;;;;;;;;;;;;;16.42;54.22;101665.00;4960130;28;1296;-54
2022/11/01 07:21:04;;;;;;;;;;;;;;;16.44;54.17;101675.72;4991632;28;1156;-53
2022/11/01 07:23:29;;;;;;;;;;;;;;;16.38;54.53;101674.81;4959510;28;1906;-54
2022/11/01 07:25:55;;;;;;;;;;;;;;;16.52;54.47;101671.72;4958708;28;1259;-48
2022/11/01 07:28:20;;;;;;;;;;;;;;;16.55;54.35;101668.47;4960488;28;1129;-54
2022/11/01 07:30:46;;;;;;;;;;;;;;;16.46;54.93;101672.72;4960310;28;1205;-50
2022/11/01 07:33:12;;;;;;;;;;;;;;;16.36;54.96;101670.66;4958021;28;1052;-52
2022/11/01 07:35:37;;;;;;;;;;;;;;;16.40;54.97;101664.41;4960159;28;1212;-53
2022/11/01 07:38:02;;;;;;;;;;;;;;;16.36;54.99;101667.91;4958784;28;1089;-51
2022/11/01 07:40:28;;;;;;;;;;;;;;;16.25;55.05;101669.66;4959458;28;1355;-52
2022/11/01 07:42:54;;;;;;;;;;;;;;;16.18;55.18;101664.31;4958053;28;1902;-52
2022/11/01 07:45:20;;;;;;;;;;;;;;;16.19;55.07;101670.66;4959494;28;1339;-53
2022/11/01 07:47:45;;;;;;;;;;;;;;;16.11;55.21;101665.59;4959928;28;1295;-51
2022/11/01 07:50:11;;;;;;;;;;;;;;;16.05;55.25;101661.94;4960108;28;1122;-54
2022/11/01 07:52:36;;;;;;;;;;;;;;;17.51;52.98;101656.28;4959336;28;1109;-57
2022/11/01 07:55:02;;;;;;;;;;;;;;;17.17;54.44;101663.88;4968234;28;919;-55
2022/11/01 07:57:27;;;;;;;;;;;;;;;16.86;55.16;101668.94;4959972;28;1236;-54
2022/11/01 07:59:53;;;;;;;;;;;;;;;16.52;55.73;101671.72;4959859;28;1137;-52
2022/11/01 08:02:18;;;;;;;;;;;;;;;16.45;55.89;101658.16;4959802;28;1142;-52
2022/11/01 08:04:43;;;;;;;;;;;;;;;16.37;56.05;101655.88;4959362;28;1914;-51
2022/11/01 08:07:09;;;;;;;;;;;;;;;16.32;55.90;101658.53;4959395;28;1209;-51
2022/11/01 08:09:34;;;;;;;;;;;;;;;16.25;55.98;101653.19;4959705;28;1185;-49
2022/11/01 08:12:00;;;;;;;;;;;;;;;16.11;56.26;101652.69;4977118;28;1156;-51
2022/11/01 08:14:26;;;;;;;;;;;;;;;16.13;55.83;101647.81;4959904;28;1240;-54
2022/11/01 08:16:54;;;;;;;;;;;;;;;16.07;55.80;101652.38;4947992;28;1153;-53
2022/11/01 08:19:20;;;;;;;;;;;;;;;16.00;55.85;101640.72;4959602;28;1173;-54
2022/11/01 08:21:46;;;;;;;;;;;;;;;15.94;56.04;101644.47;4976314;28;1204;-50
2022/11/01 08:24:11;;;;;;;;;;;;;;;15.98;55.61;101640.13;4957838;28;1906;-54
2022/11/01 08:26:37;;;;;;;;;;;;;;;15.89;55.78;101641.63;4959290;28;1059;-53
2022/11/01 08:29:02;;;;;;;;;;;;;;;15.89;55.67;101642.47;4957915;28;1009;-52
2022/11/01 08:31:27;;;;;;;;;;;;;;;15.85;55.69;101637.69;4959101;28;1210;-49
2022/11/01 08:33:53;;;;;;;;;;;;;;;15.78;56.02;101637.00;4959184;28;1327;-53
2022/11/01 08:36:20;;;;;;;;;;;;;;;15.88;56.01;101639.97;4959424;28;1138;-55
2022/11/01 08:38:46;;;;;;;;;;;;;;;15.81;56.01;101636.53;4959033;28;1299;-54
2022/11/01 08:41:11;;;;;;;;;;;;;;;15.72;56.26;101644.31;4972787;28;1140;-55
2022/11/01 08:43:37;;;;;;;;;;;;;;;15.69;56.06;101645.63;4950455;28;1983;-56
2022/11/01 08:46:02;;;;;;;;;;;;;;;16.76;54.89;101645.72;4958540;28;1196;-55
2022/11/01 08:48:27;;;;;;;;;;;;;;;17.19;55.00;101646.00;4958479;28;1330;-50
2022/11/01 08:50:53;;;;;;;;;;;;;;;16.64;56.84;101642.25;4983693;28;1180;-47
2022/11/01 08:53:19;;;;;;;;;;;;;;;16.63;56.55;101653.50;4950797;28;1452;-53
2022/11/01 08:55:44;;;;;;;;;;;;;;;16.51;56.86;101639.84;4958350;28;1224;-53
2022/11/01 08:58:09;;;;;;;;;;;;;;;16.51;56.86;101650.81;4958684;28;1165;-52
2022/11/01 09:00:35;;;;;;;;;;;;;;;16.51;56.51;101640.69;4958417;28;1121;-47
2022/11/01 09:03:00;;;;;;;;;;;;;;;16.55;56.63;101635.50;4958437;28;1910;-54
2022/11/01 09:05:28;;;;;;;;;;;;;;;16.47;56.99;101638.72;4958121;28;1177;-53
2022/11/01 09:07:57;;;;;;;;;;;;;;;16.42;56.89;101626.56;4957673;29;1176;-58
2022/11/01 09:10:24;;;;;;;;;;;;;;;16.41;56.86;101644.13;4958945;28;1126;-56
2022/11/01 09:12:49;;;;;;;;;;;;;;;16.53;56.43;101623.97;4958083;28;1188;-57
2022/11/01 09:15:15;;;;;;;;;;;;;;;16.32;56.53;101631.06;4958596;28;1197;-56
2022/11/01 09:17:40;;;;;;;;;;;;;;;16.22;56.50;101624.31;4958041;28;1370;-60
2022/11/01 09:20:08;;;;;;;;;;;;;;;16.22;56.26;101626.25;4958604;28;1193;-55
2022/11/01 09:22:36;;;;;;;;;;;;;;;16.10;56.65;101629.06;4957930;28;1923;-56
2022/11/01 09:25:02;;;;;;;;;;;;;;;16.07;56.33;101626.84;4958684;28;1189;-55
2022/11/01 09:27:27;;;;;;;;;;;;;;;16.11;56.13;101622.50;4958021;28;1184;-55
2022/11/01 09:29:53;;;;;;;;;;;;;;;16.04;56.00;101622.66;4958065;28;1307;-54
2022/11/01 09:32:18;;;;;;;;;;;;;;;16.01;55.95;101617.69;4957788;28;1350;-55
2022/11/01 09:34:44;;;;;;;;;;;;;;;16.04;55.69;101619.09;4957837;28;1319;-56
2022/11/01 09:37:09;;;;;;;;;;;;;;;16.00;55.75;101617.94;4955556;28;1177;-56
2022/11/01 09:39:35;;;;;;;;;;;;;;;15.94;55.87;101619.75;4946983;28;1173;-56
2022/11/01 09:42:04;;;;;;;;;;;;;;;15.90;55.79;101618.59;4957453;28;1130;-57
2022/11/01 09:44:33;;;;;;;;;;;;;;;15.90;55.75;101613.13;4956469;29;1957;-56
2022/11/01 09:47:00;;;;;;;;;;;;;;;15.84;55.82;101614.13;4957304;28;1169;-55
2022/11/01 09:49:27;;;;;;;;;;;;;;;15.84;55.83;101619.59;4956907;29;1014;-55
2022/11/01 09:51:52;;;;;;;;;;;;;;;15.81;55.76;101609.97;4975752;28;1144;-56
2022/11/01 09:54:18;;;;;;;;;;;;;;;15.80;55.87;101607.47;4957837;28;1011;-56
2022/11/01 09:57:05;;;;;;;;;;;;;;;15.74;56.02;101610.06;4987755;28;1069;-56
2022/11/01 09:59:35;;;;;;;;;;;;;;;15.74;55.74;101604.59;4986374;28;1263;-56
2022/11/01 10:02:14;;;;;;;;;;;;;;;15.70;55.94;101608.91;4983324;28;1097;-57
2022/11/01 10:04:58;;;;;;;;;;;;;;;15.71;55.89;101596.88;4957657;28;1995;-58
2022/11/01 10:07:36;;;;;;;;;;;;;;;15.66;55.62;101596.78;4957785;28;1248;-58
2022/11/01 10:10:10;;;;;;;;;;;;;;;15.70;55.81;101608.09;4957657;28;1621;-57
2022/11/01 10:12:36;;;;;;;;;;;;;;;15.71;55.76;101596.88;4957730;28;1248;-60
2022/11/01 10:15:26;;;;;;;;;;;;;;;17.05;55.61;101607.09;4957348;28;1295;-55
2022/11/01 10:17:52;;;;;;;;;;;;;;;16.64;57.01;101606.56;4987797;28;1365;-51
2022/11/01 10:20:19;;;;;;;;;;;;;;;16.32;57.37;101598.13;4956812;28;1315;-53
2022/11/01 10:22:46;;;;;;;;;;;;;;;16.23;56.96;101603.22;4988079;28;1915;-51
2022/11/01 10:25:25;;;;;;;;;;;;;;;16.14;56.92;101601.97;4957684;28;1141;-53
2022/11/01 10:27:51;;;;;;;;;;;;;;;16.04;56.65;101597.97;4975023;28;1231;-52
2022/11/01 10:30:17;;;;;;;;;;;;;;;16.00;57.05;101599.56;4956939;28;1165;-52
2022/11/01 10:32:46;;;;;;;;;;;;;;;16.02;56.70;101588.34;4957738;28;1267;-49
2022/11/01 10:35:15;;;;;;;;;;;;;;;15.96;56.72;101601.13;4957819;28;1173;-52
2022/11/01 10:37:41;;;;;;;;;;;;;;;15.87;56.75;101602.66;4985448;28;969;-53
2022/11/01 10:40:17;;;;;;;;;;;;;;;15.81;56.37;101593.50;4957439;28;1142;-52
2022/11/01 10:42:42;;;;;;;;;;;;;;;15.80;56.19;101586.34;4955444;29;1978;-52
2022/11/01 10:45:09;;;;;;;;;;;;;;;15.84;56.02;101592.19;4957116;28;1260;-52
2022/11/01 10:47:35;;;;;;;;;;;;;;;15.73;56.18;101583.72;4971086;28;1002;-53
2022/11/01 10:50:00;;;;;;;;;;;;;;;15.72;56.25;101571.13;4959924;28;1402;-54
2022/11/01 10:52:27;;;;;;;;;;;;;;;15.72;56.17;101573.88;4959699;28;1378;-58
2022/11/01 10:54:52;;;;;;;;;;;;;;;15.66;55.97;101572.09;4959361;29;1141;-55
2022/11/01 10:57:24;;;;;;;;;;;;;;;15.67;56.04;101565.53;4961115;28;1000;-51
2022/11/01 10:59:49;;;;;;;;;;;;;;;15.65;55.91;101567.69;4960297;28;1386;-51
2022/11/01 11:02:44;;;;;;;;;;;;;;;15.65;56.20;101567.69;4960296;28;1338;-57
2022/11/01 11:05:12;;;;;;;;;;;;;;;15.61;55.92;101557.47;4953986;28;1304;-55
2022/11/01 11:07:38;;;;;;;;;;;;;;;15.62;56.07;101559.97;4960325;28;1054;-53
2022/11/01 11:10:05;;;;;;;;;;;;;;;15.54;56.09;101560.38;4959255;28;1291;-55
2022/11/01 11:12:31;;;;;;;;;;;;;;;15.58;56.00;101547.81;4976105;28;1002;-53
2022/11/01 11:14:57;;;;;;;;;;;;;;;16.83;56.31;101560.41;4970023;28;1133;-54
2022/11/01 11:17:30;;;;;;;;;;;;;;;16.80;56.64;101549.06;4957342;28;1181;-53
2022/11/01 11:19:59;;;;;;;;;;;;;;;16.29;57.51;101552.00;4957153;28;1247;-50
2022/11/01 11:22:25;;;;;;;;;;;;;;;16.10;57.70;101551.44;4956178;29;1384;-53
2022/11/01 11:24:51;;;;;;;;;;;;;;;16.04;57.14;101548.59;4958153;28;1910;-53
2022/11/01 11:27:17;;;;;;;;;;;;;;;15.98;57.00;101543.31;4959008;28;1149;-55
2022/11/01 11:29:49;;;;;;;;;;;;;;;15.89;56.96;101542.88;4957256;28;1264;-54
2022/11/01 11:32:16;;;;;;;;;;;;;;;15.87;56.57;101543.13;4955645;29;1237;-51
2022/11/01 11:34:41;;;;;;;;;;;;;;;15.83;56.56;101536.47;4958845;28;1326;-44
2022/11/01 11:37:07;;;;;;;;;;;;;;;16.23;56.85;101538.19;4960070;28;1350;-51
2022/11/01 11:39:37;;;;;;;;;;;;;;;17.14;56.48;101537.94;4988003;28;1208;-52
2022/11/01 11:42:09;;;;;;;;;;;;;;;16.53;57.49;101541.59;4959556;28;1042;-50
2022/11/01 11:44:39;;;;;;;;;;;;;;;16.31;57.27;101538.84;4959884;28;1976;-49
2022/11/01 11:47:04;;;;;;;;;;;;;;;16.20;57.49;101535.09;4960565;28;1189;-54
2022/11/01 11:49:31;;;;;;;;;;;;;;;16.13;57.09;101528.97;4959975;28;1090;-55
2022/11/01 11:51:57;;;;;;;;;;;;;;;16.04;57.00;101531.31;4959752;28;1264;-53
2022/11/01 11:54:30;;;;;;;;;;;;;;;15.97;57.03;101526.00;4959330;28;1157;-48
2022/11/01 11:57:14;;;;;;;;;;;;;;;15.97;56.71;101534.22;4969254;28;1318;-49
2022/11/01 11:59:40;;;;;;;;;;;;;;;15.90;56.71;101530.84;4959779;28;1161;-51
2022/11/01 12:02:11;;;;;;;;;;;;;;;15.83;56.69;101531.00;4959019;28;1017;-57
2022/11/01 12:04:40;;;;;;;;;;;;;;;15.82;56.39;101517.53;4957961;28;1965;-53
2022/11/01 12:07:07;;;;;;;;;;;;;;;15.78;56.68;101532.78;4988892;28;1429;-56
2022/11/01 12:09:33;;;;;;;;;;;;;;;15.77;56.63;101528.38;4958230;29;1350;-49
2022/11/01 12:12:05;;;;;;;;;;;;;;;15.72;56.46;101532.72;4959380;28;1112;-47
2022/11/01 12:14:31;;;;;;;;;;;;;;;15.73;56.53;101533.56;4958847;28;1256;-49
2022/11/01 12:16:56;;;;;;;;;;;;;;;15.74;56.31;101533.31;4989206;28;1412;-53
2022/11/01 12:19:26;;;;;;;;;;;;;;;15.67;56.56;101520.81;4957146;29;1088;-56
2022/11/01 12:21:51;;;;;;;;;;;;;;;15.66;56.33;101519.19;4957746;29;1204;-51
2022/11/01 12:24:18;;;;;;;;;;;;;;;16.52;56.96;101527.06;4959166;28;2002;-54
2022/11/01 12:26:44;;;;;;;;;;;;;;;17.45;56.07;101528.09;4957134;28;1224;-66
2022/11/01 12:29:16;;;;;;;;;;;;;;;16.62;58.01;101531.84;4959777;28;1181;-58
2022/11/01 12:31:42;;;;;;;;;;;;;;;16.37;57.75;101526.84;4959116;28;895;-61
2022/11/01 12:34:29;;;;;;;;;;;;;;;16.21;57.54;101525.78;4958286;29;1165;-59
2022/11/01 12:36:57;;;;;;;;;;;;;;;16.02;57.95;101536.22;4957469;28;866;-65
2022/11/01 12:39:34;;;;;;;;;;;;;;;15.98;57.67;101527.66;4955542;29;1145;-60
2022/11/01 12:42:02;;;;;;;;;;;;;;;15.89;57.36;101537.38;4955716;29;1337;-60
2022/11/01 12:44:38;;;;;;;;;;;;;;;15.91;57.58;101535.25;4956177;28;1910;-59
2022/11/01 12:47:05;;;;;;;;;;;;;;;17.22;57.00;101537.47;4955760;28;1153;-56
2022/11/01 12:49:34;;;;;;;;;;;;;;;17.09;57.78;101528.56;4956728;28;1303;-53
2022/11/01 12:52:01;;;;;;;;;;;;;;;16.56;58.22;101538.34;4956783;28;1264;-56
2022/11/01 12:54:27;;;;;;;;;;;;;;;16.37;58.24;101527.69;4955911;28;1240;-55
2022/11/01 12:56:54;;;;;;;;;;;;;;;16.24;57.78;101534.38;4957260;29;1322;-59